Terminal Aerodrome Forecast
Issued by NWS

Home | Current Version | Previous Version | Text Only | Print | Product List | Glossary On
Versions: 1 2 3 4 5 6 7 8 9 10 11 12 13 14 15 16 17 18 19
000
FTUS43 KIWX 142300 CCA
TAFSBN
TAF COR
KSBN 142343Z 1500/1524 21003KT P6SM BKN150
     FM151400 20008KT P6SM BKN060
     FM151800 25008KT P6SM -RA OVC040
     FM152200 31008KT P6SM OVC020=

USA.gov is the U.S. government's official web portal to all federal, state and local government web resources and services.